Time;durP1;ratioP1;P1;durP2;ratioP2;P2;SDS_P1;SDS_P2;PMS_P1;PMS_P2;Temp;Humidity;BMP_temperature;BMP_pressure;BME280_temperature;BME280_humidity;BME280_pressure;Samples;Min_cycle;Max_cycle;Signal;HPM_P1;HPM_P2
2023/02/26 00:01:46;;;;;;;8.80;3.17;;;3.90;99.90;;;;;;4943106;29;20177;-85
2023/02/26 00:04:30;;;;;;;8.67;2.97;;;3.90;99.90;;;;;;4939114;29;20150;-84
2023/02/26 00:06:57;;;;;;;12.47;2.73;;;4.00;99.90;;;;;;4925809;29;20200;-86
2023/02/26 00:09:29;;;;;;;11.83;3.00;;;4.10;99.90;;;;;;4932872;29;20178;-87
2023/02/26 00:12:00;;;;;;;7.67;2.83;;;3.90;99.90;;;;;;4922484;29;20185;-86
2023/02/26 00:15:11;;;;;;;8.47;3.20;;;3.70;99.90;;;;;;4905838;29;20305;-86
2023/02/26 00:17:56;;;;;;;8.37;3.33;;;3.60;99.90;;;;;;4921933;29;20178;-88
2023/02/26 00:20:22;;;;;;;8.77;3.40;;;3.90;99.90;;;;;;4921388;29;20178;-86
2023/02/26 00:23:10;;;;;;;7.43;3.40;;;3.70;99.90;;;;;;4931719;29;20182;-88
2023/02/26 00:25:58;;;;;;;10.00;3.23;;;3.60;99.90;;;;;;4935370;29;20209;-86
2023/02/26 00:28:30;;;;;;;7.63;3.00;;;3.70;99.90;;;;;;4939354;29;20200;-87
2023/02/26 00:31:04;;;;;;;10.10;2.70;;;3.70;99.90;;;;;;4935561;29;20193;-86
2023/02/26 00:33:40;;;;;;;9.70;3.30;;;3.80;99.90;;;;;;4933610;29;20170;-86
2023/02/26 00:39:45;;;;;;;9.20;3.17;;;3.80;99.90;;;;;;4932418;29;20209;-85
2023/02/26 00:42:14;;;;;;;8.20;2.83;;;3.80;99.90;;;;;;4932627;29;20175;-82
2023/02/26 00:44:53;;;;;;;9.83;2.83;;;3.70;1.00;;;;;;4942552;29;20229;-83
2023/02/26 00:48:00;;;;;;;6.07;2.80;;;3.70;1.00;;;;;;4941968;29;20177;-86
2023/02/26 00:51:19;;;;;;;11.67;3.47;;;3.80;1.00;;;;;;4937649;29;20174;-86
2023/02/26 00:54:20;;;;;;;7.23;3.87;;;3.80;1.00;;;;;;4937304;29;20632;-90
2023/02/26 00:57:11;;;;;;;10.17;3.73;;;3.80;1.00;;;;;;4942414;29;20174;-86
2023/02/26 01:00:04;;;;;;;8.70;2.70;;;3.60;1.00;;;;;;4924709;29;20178;-93
2023/02/26 01:02:56;;;;;;;8.33;3.03;;;3.60;1.00;;;;;;4938450;29;20153;-91
2023/02/26 01:05:59;;;;;;;8.80;2.80;;;3.50;1.00;;;;;;4938106;29;20214;-92
2023/02/26 01:08:48;;;;;;;7.20;3.23;;;3.50;1.00;;;;;;4941698;29;20157;-85
2023/02/26 01:11:29;;;;;;;8.93;3.10;;;3.50;1.00;;;;;;4944558;29;20181;-86
2023/02/26 01:14:31;;;;;;;8.17;2.83;;;3.50;1.00;;;;;;4940135;29;20178;-84
2023/02/26 01:17:36;;;;;;;8.77;3.87;;;3.50;1.00;;;;;;4938156;29;20173;-87
2023/02/26 01:20:19;;;;;;;9.17;3.60;;;3.50;1.00;;;;;;4933693;29;20233;-96
2023/02/26 01:23:22;;;;;;;10.77;3.73;;;3.40;1.00;;;;;;4938916;29;20156;-86
2023/02/26 01:26:17;;;;;;;9.40;3.70;;;3.40;1.00;;;;;;4934085;29;20252;-87
2023/02/26 01:28:43;;;;;;;9.10;2.73;;;3.40;1.00;;;;;;4914926;29;20245;-87
2023/02/26 01:31:48;;;;;;;11.07;3.17;;;3.40;1.00;;;;;;4921421;29;20174;-88
2023/02/26 01:34:29;;;;;;;13.90;3.80;;;3.40;1.00;;;;;;4909219;29;20201;-86
2023/02/26 01:37:21;;;;;;;9.20;3.20;;;3.50;1.00;;;;;;4921563;29;20503;-87
2023/02/26 01:40:15;;;;;;;7.07;3.07;;;3.40;1.00;;;;;;4920481;29;20181;-86
2023/02/26 01:42:45;;;;;;;11.17;3.30;;;3.40;1.00;;;;;;4922615;29;20224;-91
2023/02/26 01:45:17;;;;;;;8.23;3.27;;;3.40;1.00;;;;;;4915176;29;20241;-85
2023/02/26 01:48:19;;;;;;;8.97;3.13;;;3.30;1.00;;;;;;4926081;29;20184;-89
2023/02/26 01:50:45;;;;;;;7.77;3.03;;;3.20;1.00;;;;;;4920547;29;20174;-87
2023/02/26 01:53:29;;;;;;;10.00;3.00;;;3.30;1.00;;;;;;4919382;29;20213;-86
2023/02/26 01:56:02;;;;;;;17.27;4.27;;;3.20;1.00;;;;;;4919371;29;20177;-87
2023/02/26 01:58:34;;;;;;;8.63;2.93;;;3.20;1.00;;;;;;4919078;29;20204;-87
2023/02/26 02:01:00;;;;;;;8.30;2.70;;;3.20;1.00;;;;;;4919160;29;20177;-85
2023/02/26 02:03:30;;;;;;;7.13;2.67;;;3.20;1.00;;;;;;4918665;29;20182;-86
2023/02/26 02:06:07;;;;;;;8.87;3.23;;;3.30;1.00;;;;;;4918692;29;20248;-86
2023/02/26 02:08:35;;;;;;;6.57;2.70;;;3.30;1.00;;;;;;4919094;29;20178;-88
2023/02/26 02:11:07;;;;;;;10.50;3.10;;;3.20;1.00;;;;;;4919671;29;20197;-85
2023/02/26 02:13:59;;;;;;;7.80;2.80;;;3.30;1.00;;;;;;4903524;29;20173;-84
2023/02/26 02:16:54;;;;;;;7.13;2.33;;;3.20;1.00;;;;;;4919673;29;20181;-84
2023/02/26 02:19:54;;;;;;;8.23;2.80;;;3.10;1.00;;;;;;4919163;29;20630;-85
2023/02/26 02:23:07;;;;;;;4.97;2.13;;;3.10;1.00;;;;;;4933987;29;20276;-85
2023/02/26 02:25:58;;;;;;;7.73;2.63;;;3.10;1.00;;;;;;4917679;29;20217;-85
2023/02/26 02:28:36;;;;;;;10.37;2.87;;;3.00;1.00;;;;;;4919461;29;20194;-84
2023/02/26 02:31:16;;;;;;;7.83;2.30;;;3.20;1.00;;;;;;4918499;29;20177;-84
2023/02/26 02:34:03;;;;;;;12.43;2.90;;;2.90;1.00;;;;;;4917697;29;20174;-85
2023/02/26 02:37:11;;;;;;;6.33;2.80;;;3.00;1.00;;;;;;4918641;29;20189;-84
2023/02/26 02:39:44;;;;;;;7.23;2.77;;;2.90;1.00;;;;;;4917894;29;20170;-85
2023/02/26 02:42:32;;;;;;;7.93;2.77;;;3.00;1.00;;;;;;4921317;29;20177;-85
2023/02/26 02:45:06;;;;;;;8.33;2.80;;;3.00;1.00;;;;;;4920846;29;20205;-91
2023/02/26 02:47:37;;;;;;;11.40;2.87;;;3.00;1.00;;;;;;4923804;29;20272;-86
2023/02/26 02:50:11;;;;;;;7.77;2.40;;;2.90;1.00;;;;;;4926120;29;20185;-84
2023/02/26 02:52:57;;;;;;;6.90;2.87;;;2.90;1.00;;;;;;4921305;29;20653;-86
2023/02/26 02:55:28;;;;;;;8.13;2.70;;;2.80;1.00;;;;;;4921409;29;20205;-86
2023/02/26 02:58:16;;;;;;;7.33;2.77;;;2.80;1.00;;;;;;4920145;29;20209;-86
2023/02/26 03:00:48;;;;;;;7.80;3.57;;;2.80;1.00;;;;;;4919887;29;20177;-87
2023/02/26 03:03:46;;;;;;;8.63;2.43;;;3.00;1.00;;;;;;4930937;29;20196;-86
2023/02/26 03:06:18;;;;;;;7.80;2.57;;;2.90;1.00;;;;;;4927164;29;20253;-87
2023/02/26 03:08:46;;;;;;;9.03;2.73;;;2.90;1.00;;;;;;4906434;29;20173;-85
2023/02/26 03:11:12;;;;;;;8.07;2.67;;;2.90;1.00;;;;;;4918560;29;20265;-85
2023/02/26 03:13:40;;;;;;;4.07;2.57;;;2.90;1.00;;;;;;4919280;29;20178;-87
2023/02/26 03:16:39;;;;;;;9.53;3.37;;;2.90;1.00;;;;;;4919286;29;20259;-85
2023/02/26 03:19:58;;;;;;;10.17;3.00;;;2.90;1.00;;;;;;4920971;29;20185;-85
2023/02/26 03:22:42;;;;;;;4.07;2.20;;;2.80;1.00;;;;;;4918461;29;20268;-85
2023/02/26 03:25:48;;;;;;;6.10;2.23;;;2.80;1.00;;;;;;4919688;29;20208;-86
2023/02/26 03:28:32;;;;;;;7.63;2.23;;;2.80;1.00;;;;;;4932058;29;20208;-86
2023/02/26 03:31:27;;;;;;;7.67;2.13;;;2.80;1.00;;;;;;4929165;29;20217;-88
2023/02/26 03:34:18;;;;;;;4.70;2.23;;;2.80;1.00;;;;;;4933736;29;20154;-86
2023/02/26 03:37:19;;;;;;;7.97;2.03;;;2.80;1.00;;;;;;4932048;29;20585;-87
2023/02/26 03:39:53;;;;;;;4.83;2.03;;;2.80;1.00;;;;;;4923097;29;20177;-85
2023/02/26 03:42:35;;;;;;;5.33;1.63;;;2.80;1.00;;;;;;4922053;29;20200;-85
2023/02/26 03:45:16;;;;;;;4.50;1.90;;;3.00;1.00;;;;;;4920300;29;20236;-87
2023/02/26 03:48:14;;;;;;;6.83;2.20;;;2.80;1.00;;;;;;4920445;29;20205;-86
2023/02/26 03:50:45;;;;;;;7.97;1.90;;;2.80;1.00;;;;;;4920500;29;20181;-88
2023/02/26 03:54:04;;;;;;;7.77;2.27;;;2.80;1.00;;;;;;4907338;29;20177;-85
2023/02/26 03:56:37;;;;;;;5.33;2.90;;;2.70;1.00;;;;;;4915654;29;20181;-85
2023/02/26 03:59:03;;;;;;;4.10;1.80;;;2.70;1.00;;;;;;4926855;29;20509;-88
2023/02/26 04:02:13;;;;;;;6.60;2.43;;;2.60;1.00;;;;;;4916155;29;20288;-87
2023/02/26 04:05:00;;;;;;;5.20;1.60;;;2.60;1.00;;;;;;4933912;29;20213;-85
2023/02/26 04:07:28;;;;;;;6.17;2.13;;;2.60;1.00;;;;;;4938662;29;20174;-84
2023/02/26 04:10:27;;;;;;;4.50;2.07;;;2.60;1.00;;;;;;4932520;29;20170;-87
2023/02/26 04:12:59;;;;;;;6.07;2.00;;;2.60;1.00;;;;;;4912926;29;20242;-94
2023/02/26 04:15:32;;;;;;;4.50;1.70;;;2.60;1.00;;;;;;4931327;29;20234;-87
2023/02/26 04:18:09;;;;;;;5.50;1.73;;;2.50;1.00;;;;;;4933081;29;20181;-90
2023/02/26 04:20:40;;;;;;;6.10;1.57;;;2.50;1.00;;;;;;4919155;29;20245;-86
2023/02/26 04:23:13;;;;;;;5.47;1.80;;;2.50;1.00;;;;;;4933848;29;20173;-85
2023/02/26 04:25:39;;;;;;;6.57;2.40;;;2.50;1.00;;;;;;4934878;29;20233;-93
2023/02/26 04:28:05;;;;;;;4.67;2.03;;;2.40;1.00;;;;;;4938875;29;20194;-93
2023/02/26 04:34:15;;;;;;;8.00;1.90;;;2.40;1.00;;;;;;4938905;29;20169;-96
2023/02/26 04:36:50;;;;;;;10.23;1.90;;;2.30;1.00;;;;;;4934396;29;20272;-94
2023/02/26 04:39:16;;;;;;;10.73;2.30;;;2.50;1.00;;;;;;4932118;29;20208;-96
2023/02/26 04:41:42;;;;;;;8.30;1.77;;;2.30;1.00;;;;;;4934058;29;20603;-96
2023/02/26 04:44:13;;;;;;;5.77;1.70;;;2.30;1.00;;;;;;4940269;29;20229;-95
2023/02/26 04:46:52;;;;;;;10.07;2.60;;;2.40;1.00;;;;;;4925533;29;20228;-87
2023/02/26 04:49:39;;;;;;;4.77;1.30;;;2.30;1.00;;;;;;4944129;29;20177;-89
2023/02/26 04:52:05;;;;;;;4.43;1.97;;;2.20;1.00;;;;;;4943984;29;20249;-85
2023/02/26 04:54:36;;;;;;;5.23;1.33;;;2.20;1.00;;;;;;4943141;29;20201;-84
2023/02/26 04:57:08;;;;;;;7.07;2.40;;;2.20;1.00;;;;;;4942118;29;20177;-89
2023/02/26 04:59:33;;;;;;;6.23;1.60;;;2.20;1.00;;;;;;4938699;29;20641;-96
2023/02/26 05:01:59;;;;;;;7.77;2.00;;;2.20;1.00;;;;;;4943448;29;20165;-92
2023/02/26 05:08:12;;;;;;;4.43;1.70;;;2.10;1.00;;;;;;4938412;29;20213;-92
2023/02/26 05:10:45;;;;;;;6.83;1.83;;;2.00;1.00;;;;;;4928237;29;20190;-89
2023/02/26 05:13:10;;;;;;;8.27;1.77;;;2.10;1.00;;;;;;4943758;29;20159;-87
2023/02/26 05:16:12;;;;;;;5.60;1.70;;;2.00;1.00;;;;;;4943845;29;20240;-95
2023/02/26 05:18:44;;;;;;;8.40;2.23;;;2.10;1.00;;;;;;4930584;29;20170;-95
2023/02/26 05:24:32;;;;;;;5.20;1.70;;;2.00;1.00;;;;;;4922499;29;20202;-85
2023/02/26 05:26:58;;;;;;;4.03;1.70;;;2.10;1.00;;;;;;4922971;29;20206;-84
2023/02/26 05:29:24;;;;;;;6.63;2.20;;;2.00;1.00;;;;;;4924533;29;20642;-86
2023/02/26 05:31:50;;;;;;;5.50;1.70;;;1.90;1.00;;;;;;4921488;29;20181;-87
2023/02/26 05:34:16;;;;;;;3.77;1.93;;;1.90;1.00;;;;;;4930308;29;20208;-84
2023/02/26 05:36:45;;;;;;;7.00;1.83;;;1.90;1.00;;;;;;4932957;29;20614;-84
2023/02/26 05:39:29;;;;;;;6.00;1.70;;;1.80;1.00;;;;;;4924962;29;20205;-84
2023/02/26 05:41:55;;;;;;;6.57;1.87;;;1.90;1.00;;;;;;4921921;29;20229;-85
2023/02/26 05:44:43;;;;;;;3.97;1.50;;;1.80;1.00;;;;;;4920481;29;20161;-85
2023/02/26 05:47:12;;;;;;;6.93;1.80;;;1.80;1.00;;;;;;4919742;29;20200;-85
2023/02/26 05:49:43;;;;;;;7.33;1.93;;;1.80;1.00;;;;;;4920550;29;20167;-85
2023/02/26 05:52:09;;;;;;;4.50;1.80;;;1.70;1.00;;;;;;4919728;29;20239;-85
2023/02/26 05:55:01;;;;;;;6.57;2.10;;;1.70;1.00;;;;;;4919119;29;20193;-87
2023/02/26 05:57:40;;;;;;;6.90;1.63;;;1.70;1.00;;;;;;4919741;29;20241;-85
2023/02/26 06:00:09;;;;;;;5.70;1.60;;;1.60;1.00;;;;;;4920629;29;20288;-85
2023/02/26 06:02:38;;;;;;;4.67;1.57;;;1.60;1.00;;;;;;4920313;29;20177;-86
2023/02/26 06:05:05;;;;;;;3.90;1.93;;;1.60;1.00;;;;;;4923341;29;20237;-86
2023/02/26 06:07:46;;;;;;;3.53;1.77;;;1.60;1.00;;;;;;4921173;29;20256;-86
2023/02/26 06:10:21;;;;;;;4.30;1.70;;;1.60;1.00;;;;;;4919990;29;20181;-86
2023/02/26 06:12:46;;;;;;;6.07;1.93;;;1.60;1.00;;;;;;4939053;29;20225;-86
2023/02/26 06:15:13;;;;;;;5.97;1.70;;;1.50;1.00;;;;;;4923776;29;20204;-86
2023/02/26 06:17:54;;;;;;;3.37;1.20;;;1.50;1.00;;;;;;4919941;29;20173;-85
2023/02/26 06:20:27;;;;;;;6.27;1.70;;;1.60;1.00;;;;;;4919543;29;20179;-86
2023/02/26 06:22:54;;;;;;;5.63;1.83;;;1.50;1.00;;;;;;4920436;29;20169;-86
2023/02/26 06:25:39;;;;;;;6.37;1.57;;;1.50;1.00;;;;;;4919994;29;20228;-87
2023/02/26 06:28:14;;;;;;;2.97;1.07;;;1.40;1.00;;;;;;4921541;29;20343;-87
2023/02/26 06:30:41;;;;;;;5.47;1.70;;;1.40;1.00;;;;;;4919617;29;20197;-88
2023/02/26 06:33:06;;;;;;;8.33;1.73;;;1.40;1.00;;;;;;4920109;29;20173;-90
2023/02/26 06:35:33;;;;;;;3.50;1.33;;;1.40;1.00;;;;;;4921984;29;20250;-85
2023/02/26 06:38:00;;;;;;;5.83;1.97;;;1.40;1.00;;;;;;4906751;29;20185;-86
2023/02/26 06:40:32;;;;;;;4.53;1.30;;;1.40;1.00;;;;;;4922794;29;20189;-87
2023/02/26 06:43:07;;;;;;;6.07;1.63;;;1.30;1.00;;;;;;4921947;29;20210;-87
2023/02/26 06:45:58;;;;;;;6.20;1.90;;;1.30;1.00;;;;;;4920104;29;20260;-86
2023/02/26 06:48:40;;;;;;;5.30;1.70;;;1.30;1.00;;;;;;4919425;29;20194;-87
2023/02/26 06:51:10;;;;;;;1.93;1.20;;;1.30;1.00;;;;;;4919218;29;20242;-86
2023/02/26 06:53:38;;;;;;;2.43;1.30;;;1.30;1.00;;;;;;4918863;29;20177;-85
2023/02/26 06:56:04;;;;;;;3.53;1.40;;;1.30;1.00;;;;;;4918525;29;20162;-87
2023/02/26 06:59:03;;;;;;;5.17;1.50;;;1.30;1.00;;;;;;4919105;29;20630;-87
2023/02/26 07:01:30;;;;;;;5.67;1.33;;;1.40;1.00;;;;;;4918516;29;20657;-88
2023/02/26 07:04:43;;;;;;;4.83;1.60;;;1.30;1.00;;;;;;4921682;29;20189;-89
2023/02/26 07:07:42;;;;;;;2.13;1.10;;;1.30;1.00;;;;;;4935977;29;20229;-96
2023/02/26 07:10:11;;;;;;;5.07;1.50;;;1.40;1.00;;;;;;4938523;29;20193;-88
2023/02/26 07:12:43;;;;;;;2.73;1.57;;;1.40;1.00;;;;;;4933929;29;20177;-86
2023/02/26 07:15:12;;;;;;;2.30;1.20;;;1.40;1.00;;;;;;4930654;29;20178;-90
2023/02/26 07:17:37;;;;;;;3.50;1.20;;;1.40;1.00;;;;;;4925917;29;20178;-90
2023/02/26 07:20:09;;;;;;;4.77;1.27;;;1.40;1.00;;;;;;4942105;29;20260;-93
2023/02/26 07:22:50;;;;;;;4.90;1.53;;;1.50;1.00;;;;;;4942106;29;20242;-91
2023/02/26 07:25:19;;;;;;;5.27;1.47;;;1.50;1.00;;;;;;4941978;29;20217;-87
2023/02/26 07:27:58;;;;;;;5.10;1.20;;;1.50;1.00;;;;;;4940532;29;20185;-86
2023/02/26 07:30:59;;;;;;;4.17;1.27;;;1.60;1.00;;;;;;4939358;29;20221;-86
2023/02/26 07:33:50;;;;;;;7.67;1.93;;;1.60;1.00;;;;;;4940605;29;20308;-86
2023/02/26 07:36:16;;;;;;;3.67;1.40;;;1.70;1.00;;;;;;4940731;29;20214;-88
2023/02/26 07:38:48;;;;;;;4.97;1.90;;;1.90;1.00;;;;;;4940698;29;20180;-86
2023/02/26 07:41:53;;;;;;;5.77;2.17;;;1.80;1.00;;;;;;4940169;29;20174;-87
2023/02/26 07:44:56;;;;;;;4.07;2.00;;;1.80;1.00;;;;;;4936252;29;20277;-96
2023/02/26 07:48:15;;;;;;;6.30;1.63;;;1.80;99.90;;;;;;4933785;29;20303;-95
2023/02/26 07:50:50;;;;;;;5.83;1.80;;;1.80;99.90;;;;;;4937731;29;20206;-85
2023/02/26 07:53:18;;;;;;;8.30;2.60;;;1.90;99.90;;;;;;4941005;29;20161;-87
2023/02/26 07:56:06;;;;;;;5.63;1.80;;;1.90;99.90;;;;;;4936661;29;20271;-87
2023/02/26 07:58:38;;;;;;;4.80;1.90;;;1.90;99.90;;;;;;4934806;29;20628;-86
2023/02/26 08:01:08;;;;;;;3.80;1.80;;;2.00;99.90;;;;;;4919180;29;20174;-86
2023/02/26 08:03:34;;;;;;;4.33;1.97;;;2.00;99.90;;;;;;4918201;29;20186;-86
2023/02/26 08:06:04;;;;;;;6.53;1.97;;;2.00;99.90;;;;;;4917562;29;20764;-87
2023/02/26 08:08:29;;;;;;;4.27;1.90;;;2.10;99.90;;;;;;4922149;29;20197;-87
2023/02/26 08:10:57;;;;;;;4.73;1.67;;;2.20;99.90;;;;;;4917465;29;20657;-87
2023/02/26 08:13:23;;;;;;;6.60;1.70;;;2.20;53.70;;;;;;4904449;29;20634;-92
2023/02/26 08:15:48;;;;;;;5.77;1.50;;;2.20;53.90;;;;;;4909768;29;20206;-90
2023/02/26 08:18:20;;;;;;;5.17;1.37;;;2.40;86.80;;;;;;4915358;29;20568;-89
2023/02/26 08:20:46;;;;;;;4.70;1.43;;;2.30;1.00;;;;;;4912109;29;20182;-89
2023/02/26 08:23:18;;;;;;;2.57;1.13;;;2.30;9.30;;;;;;4920935;29;20229;-86
2023/02/26 08:25:44;;;;;;;3.30;1.00;;;2.30;1.00;;;;;;4928258;29;20255;-87
2023/02/26 08:28:12;;;;;;;6.13;1.40;;;2.30;1.00;;;;;;4922334;29;20177;-86
2023/02/26 08:30:37;;;;;;;3.20;1.40;;;2.30;9.40;;;;;;4906060;29;20289;-89
2023/02/26 08:33:09;;;;;;;2.83;1.20;;;2.40;20.30;;;;;;4922206;29;20646;-85
2023/02/26 08:35:41;;;;;;;2.13;1.20;;;2.40;1.00;;;;;;4921858;29;20233;-85
2023/02/26 08:38:29;;;;;;;4.13;1.30;;;2.40;5.90;;;;;;4922590;29;20169;-86
2023/02/26 08:41:08;;;;;;;4.80;1.57;;;2.30;1.00;;;;;;4931682;29;20174;-87
2023/02/26 08:43:35;;;;;;;1.30;0.93;;;2.40;34.80;;;;;;4926246;29;20195;-87
2023/02/26 08:46:02;;;;;;;3.60;1.53;;;2.40;1.00;;;;;;4917442;29;20220;-87
2023/02/26 08:48:27;;;;;;;4.97;1.10;;;2.30;1.00;;;;;;4917969;29;20177;-88
2023/02/26 08:50:53;;;;;;;4.90;1.10;;;2.40;1.00;;;;;;4920909;29;20256;-86
2023/02/26 08:53:19;;;;;;;4.03;1.10;;;2.40;1.00;;;;;;4919215;29;20170;-85
2023/02/26 08:55:49;;;;;;;6.27;1.70;;;2.40;1.00;;;;;;4917980;29;20201;-85
2023/02/26 08:58:14;;;;;;;4.67;1.80;;;2.40;1.00;;;;;;4918536;29;20593;-85
2023/02/26 09:00:40;;;;;;;3.33;1.23;;;2.50;1.00;;;;;;4919582;29;20181;-88
2023/02/26 09:03:06;;;;;;;2.43;1.10;;;2.60;1.00;;;;;;4919766;29;20557;-88
2023/02/26 09:05:31;;;;;;;4.83;1.77;;;2.80;1.00;;;;;;4936533;29;20197;-88
2023/02/26 09:07:57;;;;;;;2.40;1.30;;;2.80;1.00;;;;;;4933724;29;20189;-87
2023/02/26 09:10:23;;;;;;;3.53;1.20;;;2.90;1.00;;;;;;4926187;29;20310;-85
2023/02/26 09:12:52;;;;;;;3.50;1.23;;;3.00;99.90;;;;;;4926251;29;20174;-86
2023/02/26 09:15:20;;;;;;;5.73;1.50;;;3.00;99.90;;;;;;4920783;29;20249;-86
2023/02/26 09:17:48;;;;;;;5.80;1.23;;;3.10;99.90;;;;;;4919499;29;20253;-87
2023/02/26 09:20:16;;;;;;;5.27;1.67;;;3.10;1.00;;;;;;4918955;29;20249;-87
2023/02/26 09:22:43;;;;;;;2.87;1.43;;;3.20;1.00;;;;;;4919681;29;20557;-89
2023/02/26 09:25:13;;;;;;;5.00;1.50;;;3.20;1.00;;;;;;4927810;29;20201;-85
2023/02/26 09:27:39;;;;;;;5.10;1.10;;;3.20;1.00;;;;;;4936939;29;20185;-87
2023/02/26 09:30:06;;;;;;;6.30;1.13;;;3.20;1.00;;;;;;4937502;29;20189;-87
2023/02/26 09:32:34;;;;;;;3.47;1.30;;;3.20;1.00;;;;;;4939063;29;20177;-85
2023/02/26 09:35:02;;;;;;;5.33;1.40;;;3.40;99.90;;;;;;4942603;29;20177;-84
2023/02/26 09:37:28;;;;;;;1.63;1.10;;;3.50;1.00;;;;;;4940438;29;20165;-84
2023/02/26 09:39:53;;;;;;;2.87;1.20;;;3.40;1.00;;;;;;4943429;29;20240;-87
2023/02/26 09:42:43;;;;;;;2.87;1.20;;;3.40;99.90;;;;;;4943331;29;20176;-87
2023/02/26 09:45:29;;;;;;;8.03;1.30;;;3.40;1.00;;;;;;4937203;29;20545;-85
2023/02/26 09:48:00;;;;;;;3.93;1.27;;;3.40;99.90;;;;;;4939103;29;20248;-85
2023/02/26 09:50:51;;;;;;;3.87;1.27;;;3.50;1.00;;;;;;4917692;29;20229;-82
2023/02/26 09:53:34;;;;;;;1.10;0.67;;;3.60;1.00;;;;;;4906135;29;20197;-86
2023/02/26 09:56:10;;;;;;;6.83;2.70;;;3.60;1.00;;;;;;4910382;29;20178;-86
2023/02/26 09:58:38;;;;;;;1.60;0.90;;;3.60;1.00;;;;;;4898767;29;20186;-86
2023/02/26 10:01:15;;;;;;;2.73;1.63;;;3.60;1.00;;;;;;4899045;29;20205;-86
2023/02/26 10:04:06;;;;;;;3.97;0.73;;;3.60;1.00;;;;;;4908823;29;20269;-86
2023/02/26 10:06:39;;;;;;;5.37;1.87;;;3.60;1.00;;;;;;4914624;29;20308;-88
2023/02/26 10:09:30;;;;;;;2.23;0.90;;;3.70;1.00;;;;;;4921867;29;20181;-87
2023/02/26 10:12:23;;;;;;;3.27;1.20;;;3.80;1.00;;;;;;4918869;29;20185;-87
2023/02/26 10:15:11;;;;;;;3.13;1.30;;;3.90;77.40;;;;;;4907082;29;20177;-88
2023/02/26 10:18:05;;;;;;;1.73;0.93;;;3.90;99.90;;;;;;4919197;29;20182;-86
2023/02/26 10:21:11;;;;;;;1.47;0.70;;;3.90;1.00;;;;;;4929382;29;20178;-91
2023/02/26 10:23:55;;;;;;;4.07;0.97;;;3.80;1.00;;;;;;4932188;29;20244;-85
2023/02/26 10:26:44;;;;;;;2.03;0.70;;;3.80;99.90;;;;;;4926826;29;20216;-85
2023/02/26 10:29:19;;;;;;;2.13;0.80;;;3.80;99.90;;;;;;4904678;29;20635;-85
2023/02/26 10:31:57;;;;;;;2.40;1.33;;;3.90;1.00;;;;;;4908031;29;20532;-85
2023/02/26 10:34:46;;;;;;;3.30;1.13;;;3.90;1.00;;;;;;4917221;29;20180;-85
2023/02/26 10:37:19;;;;;;;2.60;1.00;;;3.90;99.90;;;;;;4915260;29;20182;-84
2023/02/26 10:39:54;;;;;;;1.03;0.63;;;3.90;99.90;;;;;;4910300;29;20242;-82
2023/02/26 10:42:46;;;;;;;1.40;0.70;;;4.00;99.90;;;;;;4916946;29;20661;-83
2023/02/26 10:45:49;;;;;;;2.80;1.20;;;3.90;99.90;;;;;;4908763;29;20750;-85
2023/02/26 10:48:52;;;;;;;3.27;1.00;;;3.90;99.90;;;;;;4909972;29;20182;-86
2023/02/26 10:51:22;;;;;;;8.60;1.80;;;4.10;1.00;;;;;;4917093;29;20180;-84
2023/02/26 10:54:16;;;;;;;2.43;1.27;;;4.40;28.40;;;;;;4904348;29;20276;-84
2023/02/26 10:56:45;;;;;;;3.40;1.00;;;4.40;1.00;;;;;;4908450;29;20186;-85
2023/02/26 10:59:14;;;;;;;2.80;1.00;;;4.30;1.00;;;;;;4908470;29;20269;-84
2023/02/26 11:01:40;;;;;;;3.10;0.93;;;4.30;1.00;;;;;;4904655;29;20252;-83
2023/02/26 11:04:13;;;;;;;2.97;1.00;;;4.50;99.90;;;;;;4903776;29;20202;-83
2023/02/26 11:06:52;;;;;;;1.10;0.70;;;4.50;99.90;;;;;;4898600;29;20233;-84
2023/02/26 11:09:25;;;;;;;2.67;0.83;;;4.40;99.90;;;;;;4908478;29;20178;-85
2023/02/26 11:11:51;;;;;;;4.30;0.97;;;4.40;1.00;;;;;;4904505;29;20166;-85
2023/02/26 11:14:19;;;;;;;5.07;1.40;;;4.40;21.80;;;;;;4907818;29;20380;-84
2023/02/26 11:17:00;;;;;;;1.37;0.80;;;4.50;99.90;;;;;;4904452;29;20222;-85
2023/02/26 11:19:39;;;;;;;2.27;0.80;;;4.50;1.00;;;;;;4897284;29;20229;-83
2023/02/26 11:22:10;;;;;;;4.43;1.90;;;4.60;1.00;;;;;;4904336;29;20212;-86
2023/02/26 11:24:39;;;;;;;2.50;0.83;;;4.50;39.30;;;;;;4896411;29;20265;-85
2023/02/26 11:27:11;;;;;;;1.97;0.70;;;4.50;1.00;;;;;;4909869;29;20240;-85
2023/02/26 11:29:45;;;;;;;3.83;0.97;;;4.70;99.90;;;;;;4915602;29;20178;-86
2023/02/26 11:32:31;;;;;;;2.23;0.97;;;4.50;99.90;;;;;;4904110;29;20619;-87
2023/02/26 11:34:57;;;;;;;5.80;1.40;;;4.60;99.90;;;;;;4898132;29;20181;-87
2023/02/26 11:37:30;;;;;;;1.63;0.90;;;4.70;99.90;;;;;;4902768;29;20310;-87
2023/02/26 11:39:59;;;;;;;1.90;1.00;;;4.70;99.90;;;;;;4929412;29;20265;-84
2023/02/26 11:42:27;;;;;;;3.27;0.90;;;4.70;99.90;;;;;;4915010;29;20550;-84
2023/02/26 11:44:53;;;;;;;3.07;1.20;;;4.30;1.00;;;;;;4911380;29;20182;-84
2023/02/26 11:47:23;;;;;;;2.30;1.30;;;4.30;1.00;;;;;;4903775;29;20198;-86
2023/02/26 11:49:54;;;;;;;3.90;1.20;;;4.40;99.90;;;;;;4901648;29;20182;-85
2023/02/26 11:52:34;;;;;;;2.53;0.60;;;4.50;99.90;;;;;;4901217;29;20192;-85
2023/02/26 11:55:15;;;;;;;2.97;1.20;;;4.40;1.00;;;;;;4912814;29;20185;-86
2023/02/26 11:57:42;;;;;;;2.50;0.90;;;4.40;99.90;;;;;;4919484;29;20217;-87
2023/02/26 12:00:39;;;;;;;5.33;1.20;;;4.30;99.90;;;;;;4900060;29;20190;-83
2023/02/26 12:03:14;;;;;;;2.37;1.17;;;4.20;99.90;;;;;;4910198;29;20607;-84
2023/02/26 12:05:40;;;;;;;4.40;1.30;;;4.30;99.90;;;;;;4904698;29;20234;-85
2023/02/26 12:08:17;;;;;;;2.03;1.00;;;4.50;99.90;;;;;;4912243;29;20548;-86
2023/02/26 12:11:07;;;;;;;3.00;1.27;;;4.30;99.90;;;;;;4916904;29;20181;-85
2023/02/26 12:13:53;;;;;;;1.90;1.10;;;4.20;99.90;;;;;;4918297;29;20177;-84
2023/02/26 12:16:45;;;;;;;5.10;1.60;;;4.30;1.00;;;;;;4911597;29;20174;-85
2023/02/26 12:19:18;;;;;;;2.33;0.93;;;4.50;99.90;;;;;;4906846;29;20186;-84
2023/02/26 12:22:05;;;;;;;2.50;1.10;;;4.80;97.10;;;;;;4897561;29;20186;-85
2023/02/26 12:24:37;;;;;;;3.23;1.40;;;4.70;1.00;;;;;;4898385;29;20193;-83
2023/02/26 12:30:02;;;;;;;2.40;1.10;;;4.80;1.00;;;;;;4911351;29;20245;-86
2023/02/26 12:33:22;;;;;;;3.37;1.00;;;4.90;1.00;;;;;;4918254;29;20253;-85
2023/02/26 12:36:05;;;;;;;4.23;1.63;;;4.90;1.00;;;;;;4914890;29;20217;-85
2023/02/26 12:39:03;;;;;;;1.93;0.90;;;4.90;99.90;;;;;;4899300;29;20214;-84
2023/02/26 12:42:30;;;;;;;2.40;0.90;;;4.90;99.90;;;;;;4903158;29;20186;-87
2023/02/26 12:45:24;;;;;;;2.10;0.80;;;4.80;1.00;;;;;;4897049;29;20205;-84
2023/02/26 12:48:02;;;;;;;2.17;1.07;;;4.90;1.00;;;;;;4897670;29;20548;-86
2023/02/26 12:50:27;;;;;;;3.37;0.93;;;4.90;1.00;;;;;;4898274;29;20630;-83
2023/02/26 12:53:16;;;;;;;1.13;0.60;;;5.00;1.00;;;;;;4900752;29;20188;-84
2023/02/26 12:56:13;;;;;;;6.40;1.20;;;5.10;1.00;;;;;;4907714;29;20182;-86
2023/02/26 12:59:13;;;;;;;0.90;0.50;;;5.10;99.90;;;;;;4917705;29;20182;-84
2023/02/26 13:01:53;;;;;;;1.07;0.60;;;4.90;99.90;;;;;;4914524;29;20170;-85
2023/02/26 13:04:49;;;;;;;2.80;0.83;;;4.80;99.90;;;;;;4909169;29;21349;-86
2023/02/26 13:07:37;;;;;;;2.00;0.80;;;4.90;99.90;;;;;;4909425;29;20182;-83
2023/02/26 13:10:40;;;;;;;1.90;0.90;;;5.00;99.90;;;;;;4911684;29;20253;-93
2023/02/26 13:13:44;;;;;;;2.27;0.90;;;5.00;99.90;;;;;;4926554;29;20189;-93
2023/02/26 13:16:35;;;;;;;1.70;0.80;;;5.20;99.90;;;;;;4928186;29;20193;-87
2023/02/26 13:19:21;;;;;;;5.47;1.40;;;5.30;99.90;;;;;;4908822;29;20171;-93
2023/02/26 13:22:11;;;;;;;1.00;0.77;;;5.30;99.90;;;;;;4910485;29;20254;-88
2023/02/26 13:24:47;;;;;;;1.53;0.73;;;5.20;99.90;;;;;;4909395;29;20186;-91
2023/02/26 13:27:15;;;;;;;2.07;0.90;;;5.40;99.90;;;;;;4907333;29;20178;-88
2023/02/26 13:29:47;;;;;;;1.90;0.90;;;5.30;99.90;;;;;;4907085;29;20181;-90
2023/02/26 13:32:31;;;;;;;2.63;1.00;;;5.30;99.90;;;;;;4918835;29;20269;-92
2023/02/26 13:35:06;;;;;;;2.17;1.03;;;5.40;99.90;;;;;;4917584;29;20178;-83
2023/02/26 13:37:39;;;;;;;2.80;1.20;;;5.40;99.90;;;;;;4899827;29;20185;-83
2023/02/26 13:40:33;;;;;;;2.33;0.80;;;5.20;99.90;;;;;;4902213;29;20186;-84
2023/02/26 13:43:32;;;;;;;3.40;1.10;;;5.30;99.90;;;;;;4907496;29;20186;-85
2023/02/26 13:46:02;;;;;;;3.53;0.83;;;5.30;99.90;;;;;;4909524;29;20206;-86
2023/02/26 13:49:08;;;;;;;1.33;0.60;;;5.30;99.90;;;;;;4916478;29;20202;-86
2023/02/26 13:51:40;;;;;;;1.57;0.87;;;5.20;99.90;;;;;;4906085;29;20185;-85
2023/02/26 13:54:16;;;;;;;2.23;0.70;;;5.20;98.70;;;;;;4904180;29;20198;-85
2023/02/26 13:56:45;;;;;;;2.23;0.70;;;5.30;63.10;;;;;;4908918;29;20618;-83
2023/02/26 13:59:11;;;;;;;2.17;0.97;;;5.30;93.90;;;;;;4907099;29;20241;-84
2023/02/26 14:01:48;;;;;;;2.07;1.13;;;5.40;72.80;;;;;;4908927;29;20201;-83
2023/02/26 14:04:23;;;;;;;0.90;0.63;;;5.40;58.80;;;;;;4906355;29;20178;-84
2023/02/26 14:07:14;;;;;;;0.87;0.80;;;5.60;48.60;;;;;;4910766;29;20250;-85
2023/02/26 14:09:54;;;;;;;1.13;0.63;;;5.30;1.00;;;;;;4907077;29;20173;-87
2023/02/26 14:12:36;;;;;;;1.33;0.70;;;5.50;1.00;;;;;;4907332;29;20630;-84
2023/02/26 14:15:14;;;;;;;2.57;0.93;;;5.40;9.90;;;;;;4903182;29;20170;-87
2023/02/26 14:18:04;;;;;;;8.83;5.13;;;5.40;1.00;;;;;;4904962;29;20166;-85
2023/02/26 14:20:33;;;;;;;2.03;0.80;;;5.40;1.00;;;;;;4914231;29;20182;-83
2023/02/26 14:23:08;;;;;;;2.23;0.73;;;5.50;1.00;;;;;;4909618;29;20178;-84